Accueil
METAR-TAF:

METAR-TAF

Aéroports :

Aéroport de Bodø

Bodø, Norvège

latitude: 67-16N, longitude: 014-22E, altitude: 1 m

Observation

Le bulletin a été fait il y a 39 minutes, à 21:50 UTC
Vent 20 kt de est
Température 5°C
Humidité 65%
Pression 1027 hPa
Visibilité 10 km ou plus
pas de nuages en-dessous de 1500 mètres et pas de cumulonimbus.

METAR: ENBO 042150Z 09020KT CAVOK 05/M01 Q1027 NOSIG

Heure: 23:29 (22:29 UTC)

Prévision

Le bulletin a été fait il y a 5 heures et 29 minutes, à 17:00 UTC
Prévision valable du 04 à 18 UTC au 05 à 18 UTC
Vent 22 kt de est
Visibilité 10 km ou plus
pas de nuages en-dessous de 1500 mètres et pas de cumulonimbus.
Evoluant progressivement
du 05 à 00 UTC au 05 à 03 UTC
Vent 12 kt de est

TAF: ENBO 041700Z 0418/0518 09022KT CAVOK BECMG 0500/0503 10012KT

Observations et prévisions météorologiques de plus de 4000 aéroports (messages METAR et TAF).

Les stations disponibles sont représentées par des disques jaunes et rouges sur la carte.

Passer la souris dessus pour voir le nom de la station.

Cliquer dessus pour voir les observations et prévisions météorologiques.

Pour changer de carte: cliquez sur les boutons verts avec une croix noire pour zoomer, sur le bouton vert avec un tiret pour effectuer un zoom arrière, ou sur les flèches vertes pour les cartes adjacentes.


METAR-TAF: